• Join FlightAware (Why Join?)
  • Login
  • US Flag 
11:50AM EST


 

Airport Tracker/Info


-or-


 

Live Flight TrackerFlight Track Log ✈ RPA4907 ✈ 09-Sep-2013 ✈ KEWR - KBWI

Flight Track Log - Related Links

Times and Time Zones

All times are in EDT time to prevent confusion due to time zone crossing. See the RPA4907 flight status page for this flight to view local times or setup timezone preferences in your user account.

Time Position Orientation Groundspeed Altitude Reporting Facility
EDT Latitude Longitude Course Direction KTS MPH feet Rate Location/Type
01:41PM 40.6500 -74.1833 227° Southwest 173 199 1,500  Level New York TRACON
01:43PM 40.6542 -74.3189 272° West 233 268 5,600 1,980 Climbing New York Center
01:44PM 40.4545 -74.5742 217° Southwest  Level Estimated
01:44PM 40.6619 -74.4094 276° West 233 268 7,500  Level New York Center
01:45PM 40.3948 -74.6751 232° Southwest  Level Estimated
01:45PM 40.6428 -74.4850 252° West 239 275 9,200  Level New York Center
01:46PM 40.3350 -74.7759 227° Southwest  Level Estimated
01:46PM 40.6025 -74.5706 238° Southwest 252 290 11,200  Level New York Center
01:47PM 40.5667 -74.6503 239° Southwest 259 298 12,700 1,380 Climbing New York Center
01:48PM 40.5306 -74.7303 239° Southwest 259 298 14,000 660 Climbing New York Center
01:49PM 40.4900 -74.8181 239° Southwest 273 314 14,100  Climbing New York Center
01:50PM 40.4472 -74.9164 240° Southwest 302 348 14,000 -60 Descending New York Center
01:51PM 40.4003 -75.0033 235° Southwest 313 360 14,000  Level New York Center
01:52PM 40.3367 -75.0894 226° Southwest 326 375 14,000  Level New York Center
01:53PM 40.2686 -75.1858 227° Southwest 333 383 14,000  Level New York Center
01:54PM 40.2092 -75.2664 226° Southwest 333 383 14,100  Climbing New York Center
01:55PM 40.1408 -75.3650 228° Southwest 333 383 14,100  Level New York Center
01:56PM 40.0814 -75.4425 225° Southwest 333 383 14,100  Level New York Center
01:57PM 40.0150 -75.5383 228° Southwest 333 383 14,100  Level New York Center
01:58PM 39.9575 -75.6183 227° Southwest 333 383 14,100 -60 Level New York Center
01:59PM 39.8908 -75.7194 229° Southwest 333 383 14,000 -60 Descending New York Center
02:00PM 39.8475 -75.8056 237° Southwest 333 383 14,000 -420 Level New York Center
02:02PM 39.7658 -75.9361 247° West  Level FlightAware Approximate
02:02PM 39.7167 -76.0667 247° West 329 379 12,600  Level Potomac TRACON
02:03PM 39.7000 -76.1667 258° West 321 369 11,000 -1,260 Descending Potomac TRACON
02:04PM 39.6500 -76.2667 237° Southwest 303 349 10,100 -1,020 Descending Potomac TRACON
02:05PM 39.5833 -76.3167 210° Southwest 272 313 9,000 -900 Descending Potomac TRACON
02:06PM 39.6000 -76.4000 285° West 273 314 8,400 -1,080 Descending Potomac TRACON
02:07PM 39.6167 -76.4833 285° West 265 305 7,000 -1,560 Descending Potomac TRACON
02:08PM 39.6000 -76.5667 255° West 246 283 5,500 -1,500 Descending Potomac TRACON
02:09PM 39.5500 -76.6333 226° Southwest 242 278 4,100 -780 Descending Potomac TRACON
02:10PM 39.5000 -76.7000 226° Southwest 239 275 4,000 -60 Descending Potomac TRACON
02:11PM 39.4500 -76.7500 218° Southwest 234 269 4,000 -300 Level Potomac TRACON
02:12PM 39.4000 -76.7833 207° Southwest 234 269 3,400 -540 Descending Potomac TRACON
02:13PM 39.3333 -76.8333 210° Southwest 236 272 3,000 -300 Descending Potomac TRACON
02:14PM 39.2667 -76.8333 180° South 244 281 2,900 -300 Descending Potomac TRACON
02:15PM 39.2167 -76.8167 166° South 188 216 2,400 -780 Descending Potomac TRACON
02:16PM 39.1833 -76.7833 142° Southeast 161 185 1,400 -840 Descending Potomac TRACON
02:17PM 39.1833 -76.7333 90° East 132 152 800 -600 Descending Potomac TRACON